Impacts METAR Board
IDs:

KGTR - Golden Triangle Arpt, MS, US

Updated at: 2200 UTC 23 May 2018
Potential Impact None Slight Moderate High
Time 23/10Z 23/11Z 23/12Z 23/13Z 23/14Z 23/15Z 23/16Z 23/17Z 23/18Z 23/19Z 23/20Z 23/21Z 23/22Z
Temp70 70 72 74 79 83 86 86 89 89 85 83
Dewpt69 70 70 72 73 74 72 70 70 71 71 70
Altim30.03 30.06 30.08 30.10 30.10 30.10 30.10 30.09 30.07 30.06 30.03 30.03
VIS10 2.5 10 10 10 10 10 10 10 10 10 10
CIG-- -- -- -- -- -- -- -- -- -- -- --
CoverCLRCLRCLRCLRCLRCLRCLRSCTCLRFEWFEWCLR
FltCatVFRIFRVFRVFRVFRVFRVFRVFRVFRVFRVFRVFR
WX--BR--------------------
WDir290000320300310032006030
WSpd3 0 0 0 3 3 6 5 7 3 12 4
WGst-- -- -- -- -- -- -- -- -- -- -- --
Raw hourly METARs
KGTR 230956Z AUTO 29003KT 10SM CLR 21/21 A3003 RMK AO2 SLP167 T02110206
KGTR 231105Z 00000KT 2 1/2SM BR CLR 21/21 A3006 RMK AO2
KGTR 231156Z 00000KT 10SM CLR 22/21 A3008 RMK AO2 SLP186 T02220211 10228 20206 52019
KGTR 231256Z 00000KT 10SM CLR 23/22 A3010 RMK AO2 SLP190 T02330222
KGTR 231356Z 32003KT 10SM CLR 26/23 A3010 RMK AO2 SLP193 T02610228
KGTR 231456Z 30003KT 10SM CLR 28/23 A3010 RMK AO2 SLP194 T02830233 51007
KGTR 231556Z 31006KT 10SM CLR 30/22 A3010 RMK AO2 SLP194 T03000222
KGTR 231656Z VRB05KT 10SM SCT037 30/21 A3009 RMK AO2 SLP189 T03000211
KGTR 231756Z 32007KT 290V350 10SM CLR 32/21 A3007 RMK AO2 SLP181 T03170211 10322 20222 58013
KGTR 231856Z VRB03KT 10SM FEW042 32/22 A3006 RMK AO2 SLP177 T03170217

KGTR 232056Z 06012KT 10SM FEW049 29/22 A3003 RMK AO2 SLP169 T02940217 56011
KGTR 232156Z 03004KT 10SM CLR 28/21 A3003 RMK AO2 LTG DSNT S AND SW SLP169 T02830211



Page loaded:  22:16 UTC  |   03:16 PM Pacific  |   04:16 PM Mountain  |   05:16 PM Central  |   06:16 PM Eastern

 

ADVISORIES

FORECASTS

FORECASTS

OBSERVATIONS

USER TOOLS

ABOUT US